sensor_id;sensor_type;location;lat;lon;timestamp;P1;durP1;ratioP1;P2;durP2;ratioP2
20894;SDS011;10607;42.066;24.742;2023-05-19T00:00:28;3.47;;;1.88;;
20894;SDS011;10607;42.066;24.742;2023-05-19T00:02:54;2.13;;;1.85;;
20894;SDS011;10607;42.066;24.742;2023-05-19T00:05:20;4.93;;;2.28;;
20894;SDS011;10607;42.066;24.742;2023-05-19T00:07:47;3.90;;;2.00;;
20894;SDS011;10607;42.066;24.742;2023-05-19T00:10:14;6.13;;;2.42;;
20894;SDS011;10607;42.066;24.742;2023-05-19T00:12:39;5.63;;;2.22;;
20894;SDS011;10607;42.066;24.742;2023-05-19T00:15:06;2.65;;;1.95;;
20894;SDS011;10607;42.066;24.742;2023-05-19T00:17:31;2.88;;;2.25;;
20894;SDS011;10607;42.066;24.742;2023-05-19T00:19:58;3.83;;;2.00;;
20894;SDS011;10607;42.066;24.742;2023-05-19T00:22:23;4.10;;;1.83;;
20894;SDS011;10607;42.066;24.742;2023-05-19T00:24:48;4.93;;;2.22;;
20894;SDS011;10607;42.066;24.742;2023-05-19T00:27:14;9.45;;;2.05;;
20894;SDS011;10607;42.066;24.742;2023-05-19T00:29:39;3.70;;;2.28;;
20894;SDS011;10607;42.066;24.742;2023-05-19T00:32:05;2.65;;;2.13;;
20894;SDS011;10607;42.066;24.742;2023-05-19T00:34:30;3.17;;;2.20;;
20894;SDS011;10607;42.066;24.742;2023-05-19T00:36:55;2.55;;;1.77;;
20894;SDS011;10607;42.066;24.742;2023-05-19T00:39:20;5.05;;;2.47;;
20894;SDS011;10607;42.066;24.742;2023-05-19T00:41:46;4.10;;;2.20;;
20894;SDS011;10607;42.066;24.742;2023-05-19T00:44:11;5.40;;;2.92;;
20894;SDS011;10607;42.066;24.742;2023-05-19T00:46:36;4.57;;;2.70;;
20894;SDS011;10607;42.066;24.742;2023-05-19T00:49:02;4.95;;;2.38;;
20894;SDS011;10607;42.066;24.742;2023-05-19T00:51:27;4.18;;;2.60;;
20894;SDS011;10607;42.066;24.742;2023-05-19T00:53:53;6.00;;;2.20;;
20894;SDS011;10607;42.066;24.742;2023-05-19T00:56:19;2.55;;;1.85;;
20894;SDS011;10607;42.066;24.742;2023-05-19T00:58:45;7.80;;;2.20;;
20894;SDS011;10607;42.066;24.742;2023-05-19T01:01:11;8.82;;;2.70;;
20894;SDS011;10607;42.066;24.742;2023-05-19T01:03:38;8.27;;;2.67;;
20894;SDS011;10607;42.066;24.742;2023-05-19T01:06:04;4.60;;;2.38;;
20894;SDS011;10607;42.066;24.742;2023-05-19T01:08:33;6.35;;;2.75;;
20894;SDS011;10607;42.066;24.742;2023-05-19T01:11:00;5.60;;;2.47;;
20894;SDS011;10607;42.066;24.742;2023-05-19T01:13:26;6.25;;;2.50;;
20894;SDS011;10607;42.066;24.742;2023-05-19T01:23:55;5.72;;;2.53;;
20894;SDS011;10607;42.066;24.742;2023-05-19T01:31:33;2.55;;;2.05;;
20894;SDS011;10607;42.066;24.742;2023-05-19T01:33:59;3.88;;;2.25;;
20894;SDS011;10607;42.066;24.742;2023-05-19T01:36:24;9.13;;;2.90;;
20894;SDS011;10607;42.066;24.742;2023-05-19T01:38:52;7.57;;;2.88;;
20894;SDS011;10607;42.066;24.742;2023-05-19T01:41:18;4.45;;;2.28;;
20894;SDS011;10607;42.066;24.742;2023-05-19T01:43:45;8.20;;;2.60;;
20894;SDS011;10607;42.066;24.742;2023-05-19T01:46:11;4.07;;;2.40;;
20894;SDS011;10607;42.066;24.742;2023-05-19T01:48:36;3.03;;;2.58;;
20894;SDS011;10607;42.066;24.742;2023-05-19T01:51:02;3.90;;;2.53;;
20894;SDS011;10607;42.066;24.742;2023-05-19T01:53:28;3.33;;;2.38;;
20894;SDS011;10607;42.066;24.742;2023-05-19T01:55:54;2.80;;;2.47;;
20894;SDS011;10607;42.066;24.742;2023-05-19T01:58:29;3.33;;;2.38;;
20894;SDS011;10607;42.066;24.742;2023-05-19T02:01:01;3.88;;;2.38;;
20894;SDS011;10607;42.066;24.742;2023-05-19T02:08:32;6.68;;;2.35;;
20894;SDS011;10607;42.066;24.742;2023-05-19T02:11:02;4.40;;;2.70;;
20894;SDS011;10607;42.066;24.742;2023-05-19T02:13:33;8.48;;;2.22;;
20894;SDS011;10607;42.066;24.742;2023-05-19T02:16:02;4.85;;;2.78;;
20894;SDS011;10607;42.066;24.742;2023-05-19T02:18:28;4.85;;;2.20;;
20894;SDS011;10607;42.066;24.742;2023-05-19T02:20:54;9.38;;;2.78;;
20894;SDS011;10607;42.066;24.742;2023-05-19T02:23:19;3.08;;;2.47;;
20894;SDS011;10607;42.066;24.742;2023-05-19T02:25:44;7.93;;;2.70;;
20894;SDS011;10607;42.066;24.742;2023-05-19T02:28:10;3.67;;;2.33;;
20894;SDS011;10607;42.066;24.742;2023-05-19T02:30:35;4.55;;;2.65;;
20894;SDS011;10607;42.066;24.742;2023-05-19T02:33:00;4.00;;;2.70;;
20894;SDS011;10607;42.066;24.742;2023-05-19T02:35:25;7.25;;;2.33;;
20894;SDS011;10607;42.066;24.742;2023-05-19T02:37:51;5.85;;;2.92;;
20894;SDS011;10607;42.066;24.742;2023-05-19T02:40:18;10.15;;;2.50;;
20894;SDS011;10607;42.066;24.742;2023-05-19T02:42:43;3.90;;;2.88;;
20894;SDS011;10607;42.066;24.742;2023-05-19T02:45:08;3.83;;;2.75;;
20894;SDS011;10607;42.066;24.742;2023-05-19T02:47:34;5.80;;;2.75;;
20894;SDS011;10607;42.066;24.742;2023-05-19T02:49:59;4.10;;;2.63;;
20894;SDS011;10607;42.066;24.742;2023-05-19T02:52:24;7.32;;;2.70;;
20894;SDS011;10607;42.066;24.742;2023-05-19T02:54:50;4.22;;;3.28;;
20894;SDS011;10607;42.066;24.742;2023-05-19T02:57:15;3.88;;;3.40;;
20894;SDS011;10607;42.066;24.742;2023-05-19T02:59:40;5.38;;;3.08;;
20894;SDS011;10607;42.066;24.742;2023-05-19T03:02:06;4.53;;;3.33;;
20894;SDS011;10607;42.066;24.742;2023-05-19T03:04:32;5.45;;;2.72;;
20894;SDS011;10607;42.066;24.742;2023-05-19T03:07:06;3.78;;;2.72;;
20894;SDS011;10607;42.066;24.742;2023-05-19T03:09:35;5.07;;;2.75;;
20894;SDS011;10607;42.066;24.742;2023-05-19T03:12:00;5.57;;;3.83;;
20894;SDS011;10607;42.066;24.742;2023-05-19T03:14:28;5.57;;;3.15;;
20894;SDS011;10607;42.066;24.742;2023-05-19T03:16:53;5.47;;;3.25;;
20894;SDS011;10607;42.066;24.742;2023-05-19T03:19:19;4.20;;;3.80;;
20894;SDS011;10607;42.066;24.742;2023-05-19T03:21:45;5.93;;;2.90;;
20894;SDS011;10607;42.066;24.742;2023-05-19T03:24:11;5.72;;;3.53;;
20894;SDS011;10607;42.066;24.742;2023-05-19T03:26:36;7.95;;;3.67;;
20894;SDS011;10607;42.066;24.742;2023-05-19T03:29:02;6.35;;;3.47;;
20894;SDS011;10607;42.066;24.742;2023-05-19T03:31:27;3.35;;;2.63;;
20894;SDS011;10607;42.066;24.742;2023-05-19T03:33:54;6.53;;;3.38;;
20894;SDS011;10607;42.066;24.742;2023-05-19T03:36:21;7.75;;;3.10;;
20894;SDS011;10607;42.066;24.742;2023-05-19T03:38:47;5.63;;;3.90;;
20894;SDS011;10607;42.066;24.742;2023-05-19T03:41:12;5.57;;;3.33;;
20894;SDS011;10607;42.066;24.742;2023-05-19T03:43:37;5.55;;;3.45;;
20894;SDS011;10607;42.066;24.742;2023-05-19T03:46:02;7.60;;;3.30;;
20894;SDS011;10607;42.066;24.742;2023-05-19T03:48:28;5.47;;;3.35;;
20894;SDS011;10607;42.066;24.742;2023-05-19T03:50:53;9.90;;;3.05;;
20894;SDS011;10607;42.066;24.742;2023-05-19T03:53:19;6.32;;;3.60;;
20894;SDS011;10607;42.066;24.742;2023-05-19T03:55:45;7.28;;;3.30;;
20894;SDS011;10607;42.066;24.742;2023-05-19T03:58:10;6.13;;;3.53;;
20894;SDS011;10607;42.066;24.742;2023-05-19T04:00:38;7.75;;;3.67;;
20894;SDS011;10607;42.066;24.742;2023-05-19T04:03:04;7.07;;;3.70;;
20894;SDS011;10607;42.066;24.742;2023-05-19T04:05:29;7.30;;;3.03;;
20894;SDS011;10607;42.066;24.742;2023-05-19T04:07:54;13.15;;;4.10;;
20894;SDS011;10607;42.066;24.742;2023-05-19T04:10:20;5.35;;;3.35;;
20894;SDS011;10607;42.066;24.742;2023-05-19T04:12:45;4.85;;;3.50;;
20894;SDS011;10607;42.066;24.742;2023-05-19T04:15:11;6.43;;;3.72;;
20894;SDS011;10607;42.066;24.742;2023-05-19T04:17:37;7.97;;;3.67;;
20894;SDS011;10607;42.066;24.742;2023-05-19T04:20:03;5.80;;;3.38;;
20894;SDS011;10607;42.066;24.742;2023-05-19T04:22:30;6.47;;;3.60;;
20894;SDS011;10607;42.066;24.742;2023-05-19T04:24:55;6.82;;;3.85;;
20894;SDS011;10607;42.066;24.742;2023-05-19T04:27:20;8.27;;;3.80;;
20894;SDS011;10607;42.066;24.742;2023-05-19T04:29:46;7.45;;;3.45;;
20894;SDS011;10607;42.066;24.742;2023-05-19T04:32:12;10.23;;;4.03;;
20894;SDS011;10607;42.066;24.742;2023-05-19T04:34:41;5.63;;;3.63;;
20894;SDS011;10607;42.066;24.742;2023-05-19T04:37:09;5.57;;;3.67;;
20894;SDS011;10607;42.066;24.742;2023-05-19T04:39:34;9.52;;;4.43;;
20894;SDS011;10607;42.066;24.742;2023-05-19T04:42:03;6.30;;;3.75;;
20894;SDS011;10607;42.066;24.742;2023-05-19T04:44:28;6.15;;;3.88;;
20894;SDS011;10607;42.066;24.742;2023-05-19T04:46:54;5.38;;;3.67;;
20894;SDS011;10607;42.066;24.742;2023-05-19T04:49:21;7.45;;;4.45;;
20894;SDS011;10607;42.066;24.742;2023-05-19T04:51:48;8.65;;;4.10;;
20894;SDS011;10607;42.066;24.742;2023-05-19T04:54:14;4.38;;;3.97;;
20894;SDS011;10607;42.066;24.742;2023-05-19T04:56:39;6.05;;;3.67;;
20894;SDS011;10607;42.066;24.742;2023-05-19T04:59:06;6.35;;;4.10;;
20894;SDS011;10607;42.066;24.742;2023-05-19T05:01:31;8.55;;;4.20;;
20894;SDS011;10607;42.066;24.742;2023-05-19T05:03:56;7.45;;;4.00;;
20894;SDS011;10607;42.066;24.742;2023-05-19T05:06:23;10.02;;;3.72;;
20894;SDS011;10607;42.066;24.742;2023-05-19T05:08:48;7.35;;;3.78;;
20894;SDS011;10607;42.066;24.742;2023-05-19T05:11:13;6.25;;;3.85;;
20894;SDS011;10607;42.066;24.742;2023-05-19T05:13:39;8.43;;;4.15;;
20894;SDS011;10607;42.066;24.742;2023-05-19T05:16:05;6.18;;;4.45;;
20894;SDS011;10607;42.066;24.742;2023-05-19T05:18:31;6.03;;;3.78;;
20894;SDS011;10607;42.066;24.742;2023-05-19T05:20:56;5.95;;;4.25;;
20894;SDS011;10607;42.066;24.742;2023-05-19T05:23:22;6.72;;;3.70;;
20894;SDS011;10607;42.066;24.742;2023-05-19T05:25:47;13.52;;;3.80;;
20894;SDS011;10607;42.066;24.742;2023-05-19T05:28:12;8.20;;;4.35;;
20894;SDS011;10607;42.066;24.742;2023-05-19T05:30:38;4.75;;;3.55;;
20894;SDS011;10607;42.066;24.742;2023-05-19T05:33:03;7.43;;;3.78;;
20894;SDS011;10607;42.066;24.742;2023-05-19T05:35:28;9.32;;;4.10;;
20894;SDS011;10607;42.066;24.742;2023-05-19T05:37:54;9.13;;;4.03;;
20894;SDS011;10607;42.066;24.742;2023-05-19T05:40:20;9.25;;;4.53;;
20894;SDS011;10607;42.066;24.742;2023-05-19T05:42:45;5.68;;;3.95;;
20894;SDS011;10607;42.066;24.742;2023-05-19T05:45:11;9.95;;;4.38;;
20894;SDS011;10607;42.066;24.742;2023-05-19T05:47:36;6.45;;;4.15;;
20894;SDS011;10607;42.066;24.742;2023-05-19T05:50:03;6.90;;;4.32;;
20894;SDS011;10607;42.066;24.742;2023-05-19T05:52:28;7.85;;;5.07;;
20894;SDS011;10607;42.066;24.742;2023-05-19T05:54:54;8.02;;;4.07;;
20894;SDS011;10607;42.066;24.742;2023-05-19T05:57:19;8.20;;;4.28;;
20894;SDS011;10607;42.066;24.742;2023-05-19T05:59:45;9.30;;;4.55;;
20894;SDS011;10607;42.066;24.742;2023-05-19T06:02:11;9.25;;;4.30;;
20894;SDS011;10607;42.066;24.742;2023-05-19T06:04:36;7.05;;;4.32;;
20894;SDS011;10607;42.066;24.742;2023-05-19T06:07:01;8.98;;;4.50;;
20894;SDS011;10607;42.066;24.742;2023-05-19T06:09:27;12.35;;;4.82;;
20894;SDS011;10607;42.066;24.742;2023-05-19T06:11:54;8.48;;;5.03;;
20894;SDS011;10607;42.066;24.742;2023-05-19T06:14:19;8.30;;;4.85;;
20894;SDS011;10607;42.066;24.742;2023-05-19T06:16:44;12.43;;;5.32;;
20894;SDS011;10607;42.066;24.742;2023-05-19T06:19:11;10.70;;;5.10;;
20894;SDS011;10607;42.066;24.742;2023-05-19T06:21:37;8.05;;;5.00;;
20894;SDS011;10607;42.066;24.742;2023-05-19T06:24:02;11.02;;;5.32;;
20894;SDS011;10607;42.066;24.742;2023-05-19T06:26:27;10.77;;;4.45;;
20894;SDS011;10607;42.066;24.742;2023-05-19T06:28:53;7.22;;;4.32;;
20894;SDS011;10607;42.066;24.742;2023-05-19T06:31:18;11.52;;;4.85;;
20894;SDS011;10607;42.066;24.742;2023-05-19T06:33:43;14.38;;;4.90;;
20894;SDS011;10607;42.066;24.742;2023-05-19T06:36:08;9.13;;;4.50;;
20894;SDS011;10607;42.066;24.742;2023-05-19T06:38:34;9.25;;;5.10;;
20894;SDS011;10607;42.066;24.742;2023-05-19T06:41:00;7.25;;;4.93;;
20894;SDS011;10607;42.066;24.742;2023-05-19T06:43:25;11.07;;;5.10;;
20894;SDS011;10607;42.066;24.742;2023-05-19T06:45:50;9.68;;;4.65;;
20894;SDS011;10607;42.066;24.742;2023-05-19T06:48:16;7.72;;;4.60;;
20894;SDS011;10607;42.066;24.742;2023-05-19T06:50:41;10.30;;;5.57;;
20894;SDS011;10607;42.066;24.742;2023-05-19T06:53:07;7.95;;;4.88;;
20894;SDS011;10607;42.066;24.742;2023-05-19T06:55:32;12.25;;;5.30;;
20894;SDS011;10607;42.066;24.742;2023-05-19T06:57:57;9.50;;;4.70;;
20894;SDS011;10607;42.066;24.742;2023-05-19T07:00:22;11.45;;;5.05;;
20894;SDS011;10607;42.066;24.742;2023-05-19T07:02:48;11.27;;;5.47;;
20894;SDS011;10607;42.066;24.742;2023-05-19T07:05:13;14.63;;;4.80;;
20894;SDS011;10607;42.066;24.742;2023-05-19T07:07:38;11.40;;;5.05;;
20894;SDS011;10607;42.066;24.742;2023-05-19T07:10:04;9.77;;;4.60;;
20894;SDS011;10607;42.066;24.742;2023-05-19T07:12:29;15.90;;;5.45;;
20894;SDS011;10607;42.066;24.742;2023-05-19T07:14:54;10.30;;;5.82;;
20894;SDS011;10607;42.066;24.742;2023-05-19T07:17:20;11.98;;;5.18;;
20894;SDS011;10607;42.066;24.742;2023-05-19T07:19:45;11.02;;;5.43;;
20894;SDS011;10607;42.066;24.742;2023-05-19T07:22:10;12.75;;;5.53;;
20894;SDS011;10607;42.066;24.742;2023-05-19T07:24:36;11.40;;;5.72;;
20894;SDS011;10607;42.066;24.742;2023-05-19T07:27:01;10.48;;;5.18;;
20894;SDS011;10607;42.066;24.742;2023-05-19T07:29:26;11.77;;;5.80;;
20894;SDS011;10607;42.066;24.742;2023-05-19T07:31:51;8.32;;;5.22;;
20894;SDS011;10607;42.066;24.742;2023-05-19T07:34:21;9.02;;;5.47;;
20894;SDS011;10607;42.066;24.742;2023-05-19T07:36:46;15.85;;;5.28;;
20894;SDS011;10607;42.066;24.742;2023-05-19T07:39:12;12.25;;;6.20;;
20894;SDS011;10607;42.066;24.742;2023-05-19T07:41:37;7.63;;;6.15;;
20894;SDS011;10607;42.066;24.742;2023-05-19T07:44:02;8.32;;;5.43;;
20894;SDS011;10607;42.066;24.742;2023-05-19T07:46:31;11.80;;;5.40;;
20894;SDS011;10607;42.066;24.742;2023-05-19T07:48:57;11.20;;;5.60;;
20894;SDS011;10607;42.066;24.742;2023-05-19T07:51:22;9.65;;;5.53;;
20894;SDS011;10607;42.066;24.742;2023-05-19T07:53:47;11.40;;;5.72;;
20894;SDS011;10607;42.066;24.742;2023-05-19T07:56:12;11.13;;;5.40;;
20894;SDS011;10607;42.066;24.742;2023-05-19T07:58:38;16.23;;;6.38;;
20894;SDS011;10607;42.066;24.742;2023-05-19T08:01:03;13.75;;;5.97;;
20894;SDS011;10607;42.066;24.742;2023-05-19T08:03:28;11.18;;;5.97;;
20894;SDS011;10607;42.066;24.742;2023-05-19T08:05:54;13.43;;;5.93;;
20894;SDS011;10607;42.066;24.742;2023-05-19T08:08:20;16.40;;;5.80;;
20894;SDS011;10607;42.066;24.742;2023-05-19T08:10:46;11.38;;;5.88;;
20894;SDS011;10607;42.066;24.742;2023-05-19T08:13:11;21.30;;;5.95;;
20894;SDS011;10607;42.066;24.742;2023-05-19T08:15:36;10.20;;;6.35;;
20894;SDS011;10607;42.066;24.742;2023-05-19T08:18:02;10.18;;;5.53;;
20894;SDS011;10607;42.066;24.742;2023-05-19T08:20:29;15.07;;;6.03;;
20894;SDS011;10607;42.066;24.742;2023-05-19T08:22:54;15.82;;;6.93;;
20894;SDS011;10607;42.066;24.742;2023-05-19T08:25:19;19.15;;;6.72;;
20894;SDS011;10607;42.066;24.742;2023-05-19T08:27:45;12.43;;;6.15;;
20894;SDS011;10607;42.066;24.742;2023-05-19T08:30:10;11.48;;;5.75;;
20894;SDS011;10607;42.066;24.742;2023-05-19T08:32:36;10.65;;;6.18;;
20894;SDS011;10607;42.066;24.742;2023-05-19T08:35:01;8.43;;;6.18;;
20894;SDS011;10607;42.066;24.742;2023-05-19T08:37:26;11.73;;;6.75;;
20894;SDS011;10607;42.066;24.742;2023-05-19T08:39:52;17.83;;;6.93;;
20894;SDS011;10607;42.066;24.742;2023-05-19T08:42:17;11.52;;;6.35;;
20894;SDS011;10607;42.066;24.742;2023-05-19T08:44:42;12.23;;;6.97;;
20894;SDS011;10607;42.066;24.742;2023-05-19T08:47:08;12.88;;;6.53;;
20894;SDS011;10607;42.066;24.742;2023-05-19T08:49:41;11.95;;;6.57;;
20894;SDS011;10607;42.066;24.742;2023-05-19T08:57:46;9.80;;;6.95;;
20894;SDS011;10607;42.066;24.742;2023-05-19T09:00:12;13.57;;;8.13;;
20894;SDS011;10607;42.066;24.742;2023-05-19T09:02:38;14.00;;;7.57;;
20894;SDS011;10607;42.066;24.742;2023-05-19T09:05:04;13.52;;;7.20;;
20894;SDS011;10607;42.066;24.742;2023-05-19T09:07:32;12.70;;;7.53;;
20894;SDS011;10607;42.066;24.742;2023-05-19T09:09:59;10.25;;;6.45;;
20894;SDS011;10607;42.066;24.742;2023-05-19T09:12:25;11.40;;;7.10;;
20894;SDS011;10607;42.066;24.742;2023-05-19T09:14:50;14.23;;;7.10;;
20894;SDS011;10607;42.066;24.742;2023-05-19T09:17:16;11.00;;;7.72;;
20894;SDS011;10607;42.066;24.742;2023-05-19T09:19:45;14.15;;;7.40;;
20894;SDS011;10607;42.066;24.742;2023-05-19T09:22:14;13.18;;;7.32;;
20894;SDS011;10607;42.066;24.742;2023-05-19T09:24:40;19.98;;;8.07;;
20894;SDS011;10607;42.066;24.742;2023-05-19T09:27:06;13.10;;;7.20;;
20894;SDS011;10607;42.066;24.742;2023-05-19T09:29:31;12.07;;;7.30;;
20894;SDS011;10607;42.066;24.742;2023-05-19T09:31:57;13.15;;;7.82;;
20894;SDS011;10607;42.066;24.742;2023-05-19T09:34:25;15.10;;;7.63;;
20894;SDS011;10607;42.066;24.742;2023-05-19T09:36:51;12.13;;;7.80;;
20894;SDS011;10607;42.066;24.742;2023-05-19T09:39:20;20.92;;;8.05;;
20894;SDS011;10607;42.066;24.742;2023-05-19T09:41:46;17.85;;;8.45;;
20894;SDS011;10607;42.066;24.742;2023-05-19T09:44:21;18.08;;;8.48;;
20894;SDS011;10607;42.066;24.742;2023-05-19T09:46:50;22.13;;;8.23;;
20894;SDS011;10607;42.066;24.742;2023-05-19T09:49:22;13.52;;;7.65;;
20894;SDS011;10607;42.066;24.742;2023-05-19T09:51:58;14.52;;;8.38;;
20894;SDS011;10607;42.066;24.742;2023-05-19T09:54:23;12.00;;;8.32;;
20894;SDS011;10607;42.066;24.742;2023-05-19T09:59:22;12.73;;;7.90;;
20894;SDS011;10607;42.066;24.742;2023-05-19T10:01:48;14.68;;;8.05;;
20894;SDS011;10607;42.066;24.742;2023-05-19T10:04:13;20.67;;;8.25;;
20894;SDS011;10607;42.066;24.742;2023-05-19T10:06:39;13.85;;;8.60;;
20894;SDS011;10607;42.066;24.742;2023-05-19T10:09:05;16.42;;;9.00;;
20894;SDS011;10607;42.066;24.742;2023-05-19T10:11:31;14.77;;;8.48;;
20894;SDS011;10607;42.066;24.742;2023-05-19T10:13:57;19.98;;;8.63;;
20894;SDS011;10607;42.066;24.742;2023-05-19T10:16:22;17.15;;;8.82;;
20894;SDS011;10607;42.066;24.742;2023-05-19T10:18:50;15.50;;;8.75;;
20894;SDS011;10607;42.066;24.742;2023-05-19T10:21:16;14.40;;;9.20;;
20894;SDS011;10607;42.066;24.742;2023-05-19T10:23:42;12.32;;;8.00;;
20894;SDS011;10607;42.066;24.742;2023-05-19T10:26:07;17.25;;;8.98;;
20894;SDS011;10607;42.066;24.742;2023-05-19T10:28:36;12.93;;;8.70;;
20894;SDS011;10607;42.066;24.742;2023-05-19T10:31:04;13.48;;;8.70;;
20894;SDS011;10607;42.066;24.742;2023-05-19T10:33:37;12.57;;;8.38;;
20894;SDS011;10607;42.066;24.742;2023-05-19T10:38:54;13.30;;;8.30;;
20894;SDS011;10607;42.066;24.742;2023-05-19T10:46:14;12.93;;;8.85;;
20894;SDS011;10607;42.066;24.742;2023-05-19T10:48:42;18.50;;;9.43;;
20894;SDS011;10607;42.066;24.742;2023-05-19T10:51:08;16.70;;;8.95;;
20894;SDS011;10607;42.066;24.742;2023-05-19T10:53:37;15.15;;;8.88;;
20894;SDS011;10607;42.066;24.742;2023-05-19T10:56:04;17.08;;;9.45;;
20894;SDS011;10607;42.066;24.742;2023-05-19T11:01:12;24.27;;;9.82;;
20894;SDS011;10607;42.066;24.742;2023-05-19T11:03:44;22.50;;;9.20;;
20894;SDS011;10607;42.066;24.742;2023-05-19T11:06:23;14.95;;;6.75;;
20894;SDS011;10607;42.066;24.742;2023-05-19T11:08:56;18.10;;;5.95;;
20894;SDS011;10607;42.066;24.742;2023-05-19T11:11:22;15.48;;;6.53;;
20894;SDS011;10607;42.066;24.742;2023-05-19T11:13:51;10.73;;;6.78;;
20894;SDS011;10607;42.066;24.742;2023-05-19T11:16:30;9.63;;;6.53;;
20894;SDS011;10607;42.066;24.742;2023-05-19T11:18:59;8.50;;;5.82;;
20894;SDS011;10607;42.066;24.742;2023-05-19T11:21:39;9.52;;;6.22;;
20894;SDS011;10607;42.066;24.742;2023-05-19T11:24:06;13.68;;;5.97;;
20894;SDS011;10607;42.066;24.742;2023-05-19T11:26:41;9.35;;;5.43;;
20894;SDS011;10607;42.066;24.742;2023-05-19T11:29:09;11.98;;;6.10;;
20894;SDS011;10607;42.066;24.742;2023-05-19T11:31:35;10.57;;;5.18;;
20894;SDS011;10607;42.066;24.742;2023-05-19T11:34:02;10.65;;;5.70;;
20894;SDS011;10607;42.066;24.742;2023-05-19T11:36:29;12.13;;;6.10;;
20894;SDS011;10607;42.066;24.742;2023-05-19T11:38:55;17.67;;;5.95;;
20894;SDS011;10607;42.066;24.742;2023-05-19T11:41:21;10.38;;;5.28;;
20894;SDS011;10607;42.066;24.742;2023-05-19T11:43:46;13.52;;;6.43;;
20894;SDS011;10607;42.066;24.742;2023-05-19T11:46:12;15.73;;;6.20;;
20894;SDS011;10607;42.066;24.742;2023-05-19T11:48:37;14.98;;;6.38;;
20894;SDS011;10607;42.066;24.742;2023-05-19T11:51:03;11.25;;;6.38;;
20894;SDS011;10607;42.066;24.742;2023-05-19T11:53:30;11.18;;;6.78;;
20894;SDS011;10607;42.066;24.742;2023-05-19T11:55:55;10.75;;;5.85;;
20894;SDS011;10607;42.066;24.742;2023-05-19T11:58:27;11.48;;;6.63;;
20894;SDS011;10607;42.066;24.742;2023-05-19T12:00:52;11.13;;;6.50;;
20894;SDS011;10607;42.066;24.742;2023-05-19T12:03:19;11.95;;;6.60;;
20894;SDS011;10607;42.066;24.742;2023-05-19T12:05:45;17.80;;;7.43;;
20894;SDS011;10607;42.066;24.742;2023-05-19T12:08:12;14.40;;;7.50;;
20894;SDS011;10607;42.066;24.742;2023-05-19T12:10:37;11.23;;;7.10;;
20894;SDS011;10607;42.066;24.742;2023-05-19T12:13:04;12.15;;;7.72;;
20894;SDS011;10607;42.066;24.742;2023-05-19T12:15:30;20.40;;;7.68;;
20894;SDS011;10607;42.066;24.742;2023-05-19T12:17:56;16.45;;;7.72;;
20894;SDS011;10607;42.066;24.742;2023-05-19T12:20:22;12.00;;;7.55;;
20894;SDS011;10607;42.066;24.742;2023-05-19T12:22:49;13.45;;;7.05;;
20894;SDS011;10607;42.066;24.742;2023-05-19T12:25:15;15.55;;;7.82;;
20894;SDS011;10607;42.066;24.742;2023-05-19T12:27:41;16.80;;;8.13;;
20894;SDS011;10607;42.066;24.742;2023-05-19T12:30:07;11.20;;;8.07;;
20894;SDS011;10607;42.066;24.742;2023-05-19T12:32:32;14.23;;;7.88;;
20894;SDS011;10607;42.066;24.742;2023-05-19T12:35:00;11.65;;;7.72;;
20894;SDS011;10607;42.066;24.742;2023-05-19T12:37:26;16.95;;;8.27;;
20894;SDS011;10607;42.066;24.742;2023-05-19T12:39:51;11.77;;;7.95;;
20894;SDS011;10607;42.066;24.742;2023-05-19T12:42:17;10.63;;;8.35;;
20894;SDS011;10607;42.066;24.742;2023-05-19T12:44:43;14.50;;;7.45;;
20894;SDS011;10607;42.066;24.742;2023-05-19T12:47:10;10.65;;;7.68;;
20894;SDS011;10607;42.066;24.742;2023-05-19T12:49:36;8.27;;;6.88;;
20894;SDS011;10607;42.066;24.742;2023-05-19T12:52:01;13.18;;;7.95;;
20894;SDS011;10607;42.066;24.742;2023-05-19T12:54:27;11.75;;;7.55;;
20894;SDS011;10607;42.066;24.742;2023-05-19T12:56:57;10.45;;;7.75;;
20894;SDS011;10607;42.066;24.742;2023-05-19T12:59:23;10.63;;;7.30;;
20894;SDS011;10607;42.066;24.742;2023-05-19T13:01:56;14.70;;;7.85;;
20894;SDS011;10607;42.066;24.742;2023-05-19T13:04:21;13.13;;;7.75;;
20894;SDS011;10607;42.066;24.742;2023-05-19T13:06:46;13.65;;;7.03;;
20894;SDS011;10607;42.066;24.742;2023-05-19T13:09:13;11.85;;;7.40;;
20894;SDS011;10607;42.066;24.742;2023-05-19T13:11:39;13.68;;;7.78;;
20894;SDS011;10607;42.066;24.742;2023-05-19T13:14:04;17.55;;;7.00;;
20894;SDS011;10607;42.066;24.742;2023-05-19T13:16:30;14.43;;;7.70;;
20894;SDS011;10607;42.066;24.742;2023-05-19T13:18:55;12.85;;;6.95;;
20894;SDS011;10607;42.066;24.742;2023-05-19T13:21:20;12.10;;;7.60;;
20894;SDS011;10607;42.066;24.742;2023-05-19T13:23:46;12.85;;;7.43;;
20894;SDS011;10607;42.066;24.742;2023-05-19T13:26:11;13.07;;;7.38;;
20894;SDS011;10607;42.066;24.742;2023-05-19T13:28:37;13.10;;;7.50;;
20894;SDS011;10607;42.066;24.742;2023-05-19T13:31:02;16.13;;;8.00;;
20894;SDS011;10607;42.066;24.742;2023-05-19T13:33:27;10.00;;;7.18;;
20894;SDS011;10607;42.066;24.742;2023-05-19T13:35:53;11.32;;;6.80;;
20894;SDS011;10607;42.066;24.742;2023-05-19T13:38:18;14.45;;;6.93;;
20894;SDS011;10607;42.066;24.742;2023-05-19T13:40:43;11.73;;;6.68;;
20894;SDS011;10607;42.066;24.742;2023-05-19T13:43:09;15.27;;;7.75;;
20894;SDS011;10607;42.066;24.742;2023-05-19T13:45:35;13.90;;;7.65;;
20894;SDS011;10607;42.066;24.742;2023-05-19T13:48:00;16.17;;;7.72;;
20894;SDS011;10607;42.066;24.742;2023-05-19T13:50:26;13.23;;;7.88;;
20894;SDS011;10607;42.066;24.742;2023-05-19T13:52:51;14.32;;;8.02;;
20894;SDS011;10607;42.066;24.742;2023-05-19T13:55:17;12.77;;;7.95;;
20894;SDS011;10607;42.066;24.742;2023-05-19T13:57:43;16.98;;;7.65;;
20894;SDS011;10607;42.066;24.742;2023-05-19T14:00:08;15.45;;;7.13;;
20894;SDS011;10607;42.066;24.742;2023-05-19T14:02:34;14.40;;;7.40;;
20894;SDS011;10607;42.066;24.742;2023-05-19T14:05:00;13.25;;;7.90;;
20894;SDS011;10607;42.066;24.742;2023-05-19T14:07:25;11.63;;;7.38;;
20894;SDS011;10607;42.066;24.742;2023-05-19T14:09:52;19.95;;;7.68;;
20894;SDS011;10607;42.066;24.742;2023-05-19T14:12:17;15.10;;;7.47;;
20894;SDS011;10607;42.066;24.742;2023-05-19T14:14:43;26.05;;;8.65;;
20894;SDS011;10607;42.066;24.742;2023-05-19T14:17:08;14.55;;;7.80;;
20894;SDS011;10607;42.066;24.742;2023-05-19T14:19:33;14.30;;;7.45;;
20894;SDS011;10607;42.066;24.742;2023-05-19T14:21:58;12.88;;;6.45;;
20894;SDS011;10607;42.066;24.742;2023-05-19T14:24:24;18.92;;;6.53;;
20894;SDS011;10607;42.066;24.742;2023-05-19T14:26:49;16.00;;;7.05;;
20894;SDS011;10607;42.066;24.742;2023-05-19T14:29:15;11.98;;;6.40;;
20894;SDS011;10607;42.066;24.742;2023-05-19T14:31:40;9.23;;;6.13;;
20894;SDS011;10607;42.066;24.742;2023-05-19T14:34:05;12.88;;;6.82;;
20894;SDS011;10607;42.066;24.742;2023-05-19T14:36:30;15.75;;;6.32;;
20894;SDS011;10607;42.066;24.742;2023-05-19T14:38:59;12.80;;;7.32;;
20894;SDS011;10607;42.066;24.742;2023-05-19T14:41:24;13.32;;;7.30;;
20894;SDS011;10607;42.066;24.742;2023-05-19T14:43:50;12.77;;;6.53;;
20894;SDS011;10607;42.066;24.742;2023-05-19T14:46:15;20.83;;;8.02;;
20894;SDS011;10607;42.066;24.742;2023-05-19T14:48:41;10.45;;;7.13;;
20894;SDS011;10607;42.066;24.742;2023-05-19T14:51:06;9.15;;;6.50;;
20894;SDS011;10607;42.066;24.742;2023-05-19T14:53:31;20.08;;;7.45;;
20894;SDS011;10607;42.066;24.742;2023-05-19T14:55:56;17.83;;;9.32;;
20894;SDS011;10607;42.066;24.742;2023-05-19T14:58:22;11.60;;;7.22;;